Time;durP1;ratioP1;P1;durP2;ratioP2;P2;SDS_P1;SDS_P2;PMS_P1;PMS_P2;Temp;Humidity;BMP_temperature;BMP_pressure;BME280_temperature;BME280_humidity;BME280_pressure;Samples;Min_cycle;Max_cycle;Signal;HPM_P1;HPM_P2
2024/01/02 00:01:38;;;;;;;10.40;2.30;;;6.50;99.90;;;;;;5067640;28;20044;-90
2024/01/02 00:04:04;;;;;;;6.25;1.45;;;6.50;99.90;;;;;;5067737;28;20143;-90
2024/01/02 00:06:30;;;;;;;9.93;1.40;;;6.50;99.90;;;;;;5064233;28;20071;-90
2024/01/02 00:08:55;;;;;;;9.52;2.53;;;6.50;99.90;;;;;;5074502;28;20411;-92
2024/01/02 00:11:21;;;;;;;4.75;1.30;;;6.60;99.90;;;;;;5064579;28;20491;-91
2024/01/02 00:13:47;;;;;;;5.43;1.30;;;6.60;99.90;;;;;;5052129;28;20523;-91
2024/01/02 00:16:13;;;;;;;4.15;1.15;;;6.60;99.90;;;;;;5052281;28;20377;-90
2024/01/02 00:18:39;;;;;;;5.45;1.10;;;6.60;99.90;;;;;;5081510;28;20043;-90
2024/01/02 00:21:04;;;;;;;5.28;1.25;;;6.60;99.90;;;;;;5072704;28;20036;-90
2024/01/02 00:23:30;;;;;;;7.88;1.45;;;6.60;99.90;;;;;;5054915;28;20036;-90
2024/01/02 00:25:56;;;;;;;4.55;1.35;;;6.60;99.90;;;;;;5066653;28;20180;-90
2024/01/02 00:28:22;;;;;;;5.13;1.48;;;6.60;99.90;;;;;;5054051;28;20040;-90
2024/01/02 00:30:47;;;;;;;6.53;1.77;;;6.60;99.90;;;;;;5070914;28;20499;-91
2024/01/02 00:33:13;;;;;;;5.82;1.30;;;6.60;99.90;;;;;;5053470;28;20450;-91
2024/01/02 00:35:39;;;;;;;7.38;1.38;;;6.60;99.90;;;;;;5090914;28;20117;-92
2024/01/02 00:38:04;;;;;;;7.47;1.50;;;6.60;99.90;;;;;;5074036;28;20090;-91
2024/01/02 00:40:30;;;;;;;3.80;1.10;;;6.60;99.90;;;;;;5073302;28;20044;-90
2024/01/02 00:42:56;;;;;;;3.83;1.40;;;6.60;99.90;;;;;;5073365;28;20097;-91
2024/01/02 00:45:22;;;;;;;5.28;1.25;;;6.60;99.90;;;;;;5090510;28;20056;-91
2024/01/02 00:47:48;;;;;;;3.88;1.00;;;6.70;99.90;;;;;;5072594;28;20122;-91
2024/01/02 00:50:14;;;;;;;6.45;1.10;;;6.70;99.90;;;;;;5072842;28;20032;-90
2024/01/02 00:52:39;;;;;;;7.03;1.25;;;6.70;99.90;;;;;;5073139;28;20043;-90
2024/01/02 00:55:06;;;;;;;5.88;1.48;;;6.70;99.90;;;;;;5072626;28;20126;-90
2024/01/02 00:57:32;;;;;;;4.43;0.95;;;6.80;99.90;;;;;;5072864;28;20044;-91
2024/01/02 00:59:58;;;;;;;7.35;1.10;;;6.80;99.90;;;;;;5073432;28;20040;-91
2024/01/02 01:02:24;;;;;;;9.23;1.30;;;6.80;99.90;;;;;;5090451;28;20040;-90
2024/01/02 01:04:50;;;;;;;6.45;1.58;;;6.80;99.90;;;;;;5058874;28;20095;-91
2024/01/02 01:07:16;;;;;;;5.25;1.17;;;6.80;99.90;;;;;;5079434;28;20047;-91
2024/01/02 01:09:41;;;;;;;7.65;1.83;;;6.80;99.90;;;;;;5049967;28;20101;-90
2024/01/02 01:12:08;;;;;;;8.02;1.40;;;6.80;99.90;;;;;;5069589;28;20037;-90
2024/01/02 01:14:33;;;;;;;7.47;1.20;;;6.80;99.90;;;;;;5081886;28;20139;-91
2024/01/02 01:16:59;;;;;;;10.68;1.75;;;6.90;99.90;;;;;;5073191;28;20513;-89
2024/01/02 01:19:25;;;;;;;6.22;1.30;;;6.90;99.90;;;;;;5090985;28;20133;-91
2024/01/02 01:21:51;;;;;;;13.05;2.15;;;6.90;99.90;;;;;;5073284;28;20126;-90
2024/01/02 01:24:17;;;;;;;13.90;2.22;;;6.90;99.90;;;;;;5064517;28;20184;-90
2024/01/02 01:26:43;;;;;;;6.80;1.58;;;6.90;99.90;;;;;;5075743;28;20040;-91
2024/01/02 01:29:09;;;;;;;7.65;1.88;;;6.90;99.90;;;;;;5052893;28;20048;-90
2024/01/02 01:31:35;;;;;;;10.77;1.83;;;6.90;99.90;;;;;;5053060;28;20028;-91
2024/01/02 01:34:00;;;;;;;10.45;1.70;;;6.90;99.90;;;;;;5052693;28;20036;-91
2024/01/02 01:36:26;;;;;;;5.70;1.67;;;6.90;99.90;;;;;;5071947;28;20032;-91
2024/01/02 01:38:52;;;;;;;6.18;1.75;;;7.00;99.90;;;;;;5090939;28;20040;-90
2024/01/02 01:41:18;;;;;;;10.48;2.25;;;6.90;99.90;;;;;;5091066;28;20032;-91
2024/01/02 01:43:45;;;;;;;3.08;1.13;;;7.00;99.90;;;;;;5090708;28;20042;-90
2024/01/02 01:46:11;;;;;;;9.10;1.80;;;7.00;99.90;;;;;;5076927;28;20036;-91
2024/01/02 01:48:37;;;;;;;6.55;1.67;;;6.90;99.90;;;;;;5068510;28;20046;-90
2024/01/02 01:51:04;;;;;;;9.52;2.40;;;7.00;99.90;;;;;;5093785;28;20040;-91
2024/01/02 01:53:30;;;;;;;8.05;1.73;;;6.90;99.90;;;;;;5076161;28;20064;-91
2024/01/02 01:55:56;;;;;;;9.32;3.03;;;7.00;99.90;;;;;;5077013;28;20089;-90
2024/01/02 01:58:21;;;;;;;6.53;1.92;;;7.00;99.90;;;;;;5093562;28;20047;-89
2024/01/02 02:00:47;;;;;;;4.35;1.52;;;7.00;99.90;;;;;;5076737;28;20036;-88
2024/01/02 02:03:13;;;;;;;8.43;1.98;;;7.00;99.90;;;;;;5076240;28;20051;-90
2024/01/02 02:05:39;;;;;;;7.47;2.10;;;7.00;99.90;;;;;;5076556;28;20040;-90
2024/01/02 02:08:05;;;;;;;8.73;2.55;;;7.00;99.90;;;;;;5070355;28;20460;-90
2024/01/02 02:10:31;;;;;;;9.10;2.25;;;7.00;99.90;;;;;;5092832;28;20043;-90
2024/01/02 02:12:59;;;;;;;7.43;1.73;;;7.00;99.90;;;;;;5076805;28;20514;-91
2024/01/02 02:15:25;;;;;;;10.23;2.95;;;7.00;99.90;;;;;;5076062;28;20032;-91
2024/01/02 02:17:51;;;;;;;8.30;1.80;;;7.10;99.90;;;;;;5076457;28;20145;-91
2024/01/02 02:20:16;;;;;;;7.80;2.13;;;7.00;99.90;;;;;;5076165;28;20075;-91
2024/01/02 02:22:52;;;;;;;9.15;2.25;;;7.10;99.90;;;;;;5076394;28;20039;-91
2024/01/02 02:25:18;;;;;;;6.90;2.10;;;7.10;99.90;;;;;;5076301;28;20054;-91
2024/01/02 02:27:48;;;;;;;8.77;2.45;;;7.10;99.90;;;;;;5076081;28;20040;-91
2024/01/02 02:30:14;;;;;;;9.95;1.92;;;7.10;99.90;;;;;;5066829;28;20037;-91
2024/01/02 02:32:39;;;;;;;9.23;2.13;;;7.10;99.90;;;;;;5068577;28;20047;-91
2024/01/02 02:35:06;;;;;;;6.68;2.35;;;7.10;99.90;;;;;;5071074;28;20036;-91
2024/01/02 02:37:32;;;;;;;8.55;2.55;;;7.10;99.90;;;;;;5060617;28;20132;-90
2024/01/02 02:39:57;;;;;;;7.15;2.42;;;7.10;99.90;;;;;;5088471;28;20064;-91
2024/01/02 02:42:23;;;;;;;8.38;2.10;;;7.10;99.90;;;;;;5066497;28;20044;-89
2024/01/02 02:44:48;;;;;;;10.20;2.42;;;7.10;99.90;;;;;;5075518;28;20039;-89
2024/01/02 02:47:14;;;;;;;12.18;2.38;;;7.10;99.90;;;;;;5060853;28;20097;-90
2024/01/02 02:49:41;;;;;;;8.35;1.95;;;7.10;99.90;;;;;;5084624;28;20127;-90
2024/01/02 02:52:07;;;;;;;11.32;2.63;;;7.10;99.90;;;;;;5092904;28;20411;-91
2024/01/02 02:54:32;;;;;;;12.27;2.10;;;7.10;99.90;;;;;;5058910;28;20483;-92
2024/01/02 02:56:58;;;;;;;7.45;1.95;;;7.10;99.90;;;;;;5075785;28;20039;-91
2024/01/02 02:59:24;;;;;;;7.28;2.15;;;7.20;99.90;;;;;;5075450;28;20130;-91
2024/01/02 03:01:50;;;;;;;7.18;1.45;;;7.20;99.90;;;;;;5092440;28;20050;-90
2024/01/02 03:04:16;;;;;;;8.80;2.17;;;7.20;99.90;;;;;;5074962;28;20040;-90
2024/01/02 03:06:41;;;;;;;6.45;1.73;;;7.20;99.90;;;;;;5073295;28;20156;-91
2024/01/02 03:09:07;;;;;;;7.55;2.38;;;7.20;99.90;;;;;;5059143;28;20079;-91
2024/01/02 03:11:32;;;;;;;6.22;1.50;;;7.20;99.90;;;;;;5075297;28;20036;-91
2024/01/02 03:13:58;;;;;;;6.68;1.55;;;7.20;99.90;;;;;;5091886;28;20118;-90
2024/01/02 03:16:24;;;;;;;7.00;1.73;;;7.20;99.90;;;;;;5075195;28;20032;-90
2024/01/02 03:18:50;;;;;;;6.40;1.77;;;7.20;99.90;;;;;;5075476;28;20169;-91
2024/01/02 03:21:16;;;;;;;8.05;1.45;;;7.20;99.90;;;;;;5075370;28;20122;-91
2024/01/02 03:23:42;;;;;;;6.18;1.60;;;7.20;99.90;;;;;;5091791;28;20558;-91
2024/01/02 03:26:14;;;;;;;5.50;2.05;;;7.20;99.90;;;;;;5066926;28;20043;-90
2024/01/02 03:28:39;;;;;;;5.25;1.48;;;7.20;99.90;;;;;;5054699;28;20491;-90
2024/01/02 03:31:06;;;;;;;8.73;1.70;;;7.20;99.90;;;;;;5054852;28;20046;-90
2024/01/02 03:33:32;;;;;;;7.85;1.83;;;7.20;99.90;;;;;;5070972;28;20082;-90
2024/01/02 03:35:57;;;;;;;8.93;1.85;;;7.20;99.90;;;;;;5086798;28;20068;-89
2024/01/02 03:38:23;;;;;;;7.93;1.70;;;7.20;99.90;;;;;;5091896;28;20035;-89
2024/01/02 03:40:50;;;;;;;9.88;1.95;;;7.30;99.90;;;;;;5074852;28;20040;-89
2024/01/02 03:43:15;;;;;;;7.55;1.52;;;7.20;99.90;;;;;;5091101;28;20620;-89
2024/01/02 03:45:41;;;;;;;8.27;2.00;;;7.20;99.90;;;;;;5074665;28;20080;-90
2024/01/02 03:48:07;;;;;;;6.35;1.55;;;7.20;99.90;;;;;;5091507;28;20040;-91
2024/01/02 03:50:32;;;;;;;3.10;1.08;;;7.30;99.90;;;;;;5091523;28;20119;-90
2024/01/02 03:52:58;;;;;;;4.45;1.73;;;7.20;99.90;;;;;;5074793;28;20036;-90
2024/01/02 03:55:23;;;;;;;4.07;1.45;;;7.30;99.90;;;;;;5074299;28;20093;-91
2024/01/02 03:57:49;;;;;;;5.30;1.35;;;7.30;99.90;;;;;;5074668;28;20070;-91
2024/01/02 04:00:15;;;;;;;9.63;1.65;;;7.30;99.90;;;;;;5074123;28;20123;-90
2024/01/02 04:02:40;;;;;;;4.18;1.20;;;7.20;99.90;;;;;;5074197;28;20042;-90
2024/01/02 04:05:07;;;;;;;5.63;1.50;;;7.30;99.90;;;;;;5074328;28;20051;-90
2024/01/02 04:07:33;;;;;;;6.15;1.27;;;7.30;99.90;;;;;;5064873;28;20043;-91
2024/01/02 04:09:59;;;;;;;7.80;1.92;;;7.30;99.90;;;;;;5072677;28;20043;-90
2024/01/02 04:12:24;;;;;;;6.60;1.38;;;7.30;99.90;;;;;;5073841;28;20402;-91
2024/01/02 04:14:50;;;;;;;7.72;1.30;;;7.30;99.90;;;;;;5073901;28;20475;-91
2024/01/02 04:17:16;;;;;;;4.43;1.42;;;7.30;99.90;;;;;;5073914;28;20114;-91
2024/01/02 04:19:42;;;;;;;7.15;1.20;;;7.30;99.90;;;;;;5074151;28;20087;-91
2024/01/02 04:22:07;;;;;;;5.65;1.42;;;7.30;99.90;;;;;;5074382;28;20044;-91
2024/01/02 04:24:33;;;;;;;6.82;1.63;;;7.30;99.90;;;;;;5056995;28;20133;-89
2024/01/02 04:26:59;;;;;;;3.03;0.82;;;7.30;99.90;;;;;;5075447;28;20182;-91
2024/01/02 04:29:24;;;;;;;6.95;1.30;;;7.30;99.90;;;;;;5070544;28;20051;-90
2024/01/02 04:31:50;;;;;;;3.53;0.90;;;7.30;99.90;;;;;;5054152;28;20139;-91
2024/01/02 04:34:16;;;;;;;3.88;1.33;;;7.30;99.90;;;;;;5063583;28;20499;-90
2024/01/02 04:36:44;;;;;;;3.60;1.20;;;7.30;99.90;;;;;;5075488;28;20046;-90
2024/01/02 04:39:10;;;;;;;2.35;1.00;;;7.30;99.90;;;;;;5078304;28;20043;-91
2024/01/02 04:41:36;;;;;;;3.83;0.80;;;7.30;99.90;;;;;;5073370;28;20046;-90
2024/01/02 04:44:02;;;;;;;2.17;0.85;;;7.30;99.90;;;;;;5073214;28;20115;-91
2024/01/02 04:46:30;;;;;;;3.10;0.95;;;7.30;99.90;;;;;;5090404;28;20044;-90
2024/01/02 04:48:56;;;;;;;3.10;1.05;;;7.30;99.90;;;;;;5073683;28;20105;-90
2024/01/02 04:51:21;;;;;;;3.22;0.88;;;7.40;99.90;;;;;;5063995;28;20450;-91
2024/01/02 04:53:47;;;;;;;1.95;0.77;;;7.30;99.90;;;;;;5051385;28;20075;-90
2024/01/02 04:56:13;;;;;;;4.88;1.13;;;7.30;99.90;;;;;;5068474;28;20437;-90
2024/01/02 04:58:38;;;;;;;4.03;1.08;;;7.30;99.90;;;;;;5071680;28;20040;-90
2024/01/02 05:01:04;;;;;;;2.22;0.90;;;7.30;99.90;;;;;;5088435;28;20438;-90
2024/01/02 05:03:30;;;;;;;3.35;0.80;;;7.30;99.90;;;;;;5089198;28;20093;-90
2024/01/02 05:05:56;;;;;;;5.22;1.05;;;7.40;99.90;;;;;;5071249;28;20040;-91
2024/01/02 05:08:21;;;;;;;3.45;1.02;;;7.40;99.90;;;;;;5075389;28;20466;-91
2024/01/02 05:10:47;;;;;;;1.75;0.85;;;7.40;99.90;;;;;;5061302;28;20487;-91
2024/01/02 05:13:13;;;;;;;4.63;0.98;;;7.30;99.90;;;;;;5089600;28;20028;-92
2024/01/02 05:15:39;;;;;;;2.03;1.17;;;7.30;99.90;;;;;;5090357;28;20036;-90
2024/01/02 05:18:04;;;;;;;3.83;1.08;;;7.30;99.90;;;;;;5089095;28;20047;-91
2024/01/02 05:20:30;;;;;;;1.60;0.50;;;7.30;99.90;;;;;;5073337;28;20047;-90
2024/01/02 05:22:59;;;;;;;3.25;1.10;;;7.30;99.90;;;;;;5073281;28;20044;-91
2024/01/02 05:25:25;;;;;;;4.30;1.30;;;7.30;99.90;;;;;;5087232;28;20055;-89
2024/01/02 05:27:51;;;;;;;3.33;1.05;;;7.30;99.90;;;;;;5068988;28;20041;-91
2024/01/02 05:30:17;;;;;;;3.13;0.98;;;7.30;99.90;;;;;;5070228;28;20115;-91
2024/01/02 05:32:42;;;;;;;2.25;0.90;;;7.30;99.90;;;;;;5053069;28;20491;-91
2024/01/02 05:35:08;;;;;;;2.33;0.85;;;7.30;99.90;;;;;;5053223;28;20157;-91
2024/01/02 05:37:34;;;;;;;2.78;0.98;;;7.30;99.90;;;;;;5073085;28;20505;-91
2024/01/02 05:39:59;;;;;;;0.73;0.60;;;7.30;99.90;;;;;;5057763;28;20047;-91
2024/01/02 05:42:25;;;;;;;2.13;0.80;;;7.40;99.90;;;;;;5083229;28;20612;-90
2024/01/02 05:44:51;;;;;;;0.65;0.65;;;7.40;99.90;;;;;;5083500;28;20051;-91
2024/01/02 05:47:16;;;;;;;3.83;1.08;;;7.40;99.90;;;;;;5082190;28;20051;-92
2024/01/02 05:49:42;;;;;;;1.45;0.77;;;7.30;99.90;;;;;;5079461;28;20534;-91
2024/01/02 05:52:08;;;;;;;2.53;0.75;;;7.40;99.90;;;;;;5062249;28;20036;-92
2024/01/02 05:54:33;;;;;;;1.73;0.63;;;7.40;99.90;;;;;;5069871;28;20037;-91
2024/01/02 05:56:59;;;;;;;4.82;0.88;;;7.40;99.90;;;;;;5085507;28;20032;-91
2024/01/02 05:59:25;;;;;;;4.90;1.10;;;7.40;99.90;;;;;;5090036;28;20089;-90
2024/01/02 06:01:50;;;;;;;2.53;0.73;;;7.40;99.90;;;;;;5066970;28;20036;-91
2024/01/02 06:04:16;;;;;;;0.93;0.60;;;7.40;99.90;;;;;;5062016;28;20070;-91
2024/01/02 06:06:42;;;;;;;1.75;0.90;;;7.40;99.90;;;;;;5070247;28;20462;-91
2024/01/02 06:09:07;;;;;;;1.08;0.60;;;7.40;99.90;;;;;;5055942;28;20040;-90
2024/01/02 06:11:33;;;;;;;1.67;0.82;;;7.40;99.90;;;;;;5064658;28;20483;-90
2024/01/02 06:13:59;;;;;;;0.52;0.43;;;7.50;99.90;;;;;;5089225;28;20123;-90
2024/01/02 06:16:24;;;;;;;2.35;0.82;;;7.50;99.90;;;;;;5089555;28;20445;-90
2024/01/02 06:18:50;;;;;;;1.88;0.90;;;7.40;99.90;;;;;;5072660;28;20036;-90
2024/01/02 06:21:15;;;;;;;1.85;0.70;;;7.50;99.90;;;;;;5089612;28;20051;-90
2024/01/02 06:23:41;;;;;;;1.08;0.68;;;7.50;99.90;;;;;;5071991;28;20703;-90
2024/01/02 06:26:07;;;;;;;1.50;0.90;;;7.50;99.90;;;;;;5072240;28;20071;-90
2024/01/02 06:28:32;;;;;;;2.25;0.90;;;7.50;99.90;;;;;;5072412;28;20079;-90
2024/01/02 06:30:58;;;;;;;1.77;0.82;;;7.50;99.90;;;;;;5084340;28;20075;-90
2024/01/02 06:33:25;;;;;;;1.83;0.90;;;7.50;99.90;;;;;;5075820;28;20047;-91
2024/01/02 06:35:50;;;;;;;0.52;0.45;;;7.50;99.90;;;;;;5076181;28;20089;-90
2024/01/02 06:38:16;;;;;;;1.65;0.73;;;7.50;99.90;;;;;;5075816;28;20040;-91
2024/01/02 06:40:42;;;;;;;1.65;0.68;;;7.50;99.90;;;;;;5080277;28;20601;-91
2024/01/02 06:43:07;;;;;;;1.58;0.80;;;7.50;99.90;;;;;;5072667;28;20044;-89
2024/01/02 06:45:33;;;;;;;1.67;0.80;;;7.50;99.90;;;;;;5076003;28;20406;-90
2024/01/02 06:47:59;;;;;;;0.95;0.68;;;7.50;99.90;;;;;;5075956;28;20047;-91
2024/01/02 06:50:24;;;;;;;2.63;0.90;;;7.50;99.90;;;;;;5075737;28;20032;-89
2024/01/02 06:52:50;;;;;;;1.00;0.60;;;7.60;99.90;;;;;;5072275;28;20040;-90
2024/01/02 06:55:16;;;;;;;0.52;0.50;;;7.50;99.90;;;;;;5075506;28;20032;-89
2024/01/02 06:57:41;;;;;;;0.85;0.70;;;7.60;99.90;;;;;;5092851;28;20051;-90
2024/01/02 07:00:07;;;;;;;1.23;0.77;;;7.60;99.90;;;;;;5076033;28;20514;-89
2024/01/02 07:02:33;;;;;;;1.40;0.65;;;7.70;99.90;;;;;;5076562;28;20059;-90
2024/01/02 07:04:59;;;;;;;1.65;0.80;;;7.70;99.90;;;;;;5093875;28;20483;-90
2024/01/02 07:07:25;;;;;;;0.90;0.80;;;7.80;99.90;;;;;;5067039;28;20029;-90
2024/01/02 07:09:51;;;;;;;1.95;0.88;;;7.70;99.90;;;;;;5088013;28;20491;-89
2024/01/02 07:12:17;;;;;;;0.98;0.75;;;7.80;99.90;;;;;;5092983;28;20093;-89
2024/01/02 07:14:43;;;;;;;1.60;1.10;;;7.80;99.90;;;;;;5087484;28;20408;-91
2024/01/02 07:17:09;;;;;;;1.52;1.00;;;7.80;99.90;;;;;;5072096;28;20038;-91
2024/01/02 07:19:35;;;;;;;1.08;0.85;;;7.80;99.90;;;;;;5072041;28;20146;-91
2024/01/02 07:22:03;;;;;;;1.85;0.95;;;7.80;99.90;;;;;;5054488;28;20592;-91
2024/01/02 07:24:31;;;;;;;2.17;1.10;;;7.90;99.90;;;;;;5051451;28;20139;-91
2024/01/02 07:26:56;;;;;;;2.80;1.00;;;7.90;99.90;;;;;;5059133;28;20045;-90
2024/01/02 07:29:22;;;;;;;2.10;1.17;;;8.00;99.90;;;;;;5057739;28;20044;-90
2024/01/02 07:31:48;;;;;;;2.35;1.15;;;8.00;99.90;;;;;;5069190;28;20487;-91
2024/01/02 07:34:14;;;;;;;2.75;1.30;;;8.10;99.90;;;;;;5088683;28;20039;-90
2024/01/02 07:36:39;;;;;;;2.85;1.10;;;8.10;99.90;;;;;;5075017;28;20032;-91
2024/01/02 07:39:06;;;;;;;1.73;0.90;;;8.20;99.90;;;;;;5092186;28;20507;-91
2024/01/02 07:41:31;;;;;;;1.65;0.90;;;8.30;99.90;;;;;;5090695;28;20119;-90
2024/01/02 07:43:57;;;;;;;1.27;0.70;;;8.30;99.90;;;;;;5069626;28;20177;-90
2024/01/02 07:46:23;;;;;;;1.75;1.00;;;8.40;99.90;;;;;;5074482;28;20051;-91
2024/01/02 07:48:49;;;;;;;1.65;0.75;;;8.50;99.90;;;;;;5075389;28;20098;-91
2024/01/02 07:51:15;;;;;;;1.88;0.85;;;8.50;99.90;;;;;;5090590;28;20119;-90
2024/01/02 07:53:41;;;;;;;1.70;0.80;;;8.60;99.90;;;;;;5067042;28;20170;-92
2024/01/02 07:56:06;;;;;;;2.53;0.77;;;8.60;99.90;;;;;;5066858;28;20040;-91
2024/01/02 07:58:32;;;;;;;2.40;0.82;;;8.60;99.90;;;;;;5072707;28;20062;-90
2024/01/02 08:00:58;;;;;;;3.33;0.80;;;8.80;99.90;;;;;;5064355;28;20051;-91
2024/01/02 08:03:24;;;;;;;1.80;0.85;;;8.80;99.90;;;;;;5056407;28;20040;-90
2024/01/02 08:05:49;;;;;;;1.63;1.00;;;8.80;99.90;;;;;;5061156;28;20105;-91
2024/01/02 08:08:15;;;;;;;2.13;0.95;;;9.00;99.90;;;;;;5047961;28;20037;-91
2024/01/02 08:10:41;;;;;;;3.30;1.25;;;9.00;99.90;;;;;;5052853;28;20118;-91
2024/01/02 08:13:07;;;;;;;1.95;0.77;;;9.10;99.90;;;;;;5054125;28;20511;-91
2024/01/02 08:15:32;;;;;;;5.65;1.58;;;9.10;99.90;;;;;;5063254;28;20040;-90
2024/01/02 08:17:58;;;;;;;2.17;1.10;;;9.20;99.90;;;;;;5051747;28;20037;-91
2024/01/02 08:20:24;;;;;;;2.55;1.35;;;9.20;99.90;;;;;;5068669;28;20088;-90
2024/01/02 08:22:49;;;;;;;3.38;1.20;;;9.30;99.90;;;;;;5059402;28;20127;-92
2024/01/02 08:25:15;;;;;;;4.47;1.38;;;9.40;99.90;;;;;;5070244;28;20483;-91
2024/01/02 08:27:41;;;;;;;2.90;1.45;;;9.40;99.90;;;;;;5070052;28;20048;-91
2024/01/02 08:30:07;;;;;;;5.85;1.75;;;9.40;99.90;;;;;;5069575;28;20041;-91
2024/01/02 08:32:33;;;;;;;4.75;1.27;;;9.40;99.90;;;;;;5068291;28;20047;-92
2024/01/02 08:34:59;;;;;;;6.22;1.55;;;9.40;99.90;;;;;;5084623;28;20040;-92
2024/01/02 08:37:25;;;;;;;6.55;1.83;;;9.50;99.90;;;;;;5083310;28;20187;-91
2024/01/02 08:39:51;;;;;;;5.25;1.33;;;9.60;99.90;;;;;;5090365;28;20051;-90
2024/01/02 08:42:16;;;;;;;5.35;1.63;;;9.70;99.90;;;;;;5063491;28;20035;-90
2024/01/02 08:44:42;;;;;;;4.32;1.50;;;9.70;99.90;;;;;;5083883;28;20564;-91
2024/01/02 08:47:08;;;;;;;22.77;2.38;;;9.70;99.90;;;;;;5059748;28;20044;-90
2024/01/02 08:49:34;;;;;;;4.10;1.55;;;9.80;99.90;;;;;;5063948;28;20040;-91
2024/01/02 08:51:59;;;;;;;6.60;1.88;;;9.80;99.90;;;;;;5065217;28;20119;-91
2024/01/02 08:54:25;;;;;;;5.63;1.90;;;9.90;99.90;;;;;;5074980;28;20472;-90
2024/01/02 08:56:51;;;;;;;5.40;1.73;;;9.80;99.90;;;;;;5089330;28;20040;-90
2024/01/02 08:59:17;;;;;;;7.63;2.22;;;9.90;99.90;;;;;;5062442;28;20039;-91
2024/01/02 09:01:49;;;;;;;7.00;1.30;;;9.80;99.90;;;;;;5089117;28;20136;-90
2024/01/02 09:04:15;;;;;;;2.05;0.73;;;9.90;99.90;;;;;;5070954;28;20843;-91
2024/01/02 09:06:41;;;;;;;8.48;2.13;;;9.90;99.90;;;;;;5059927;28;20118;-91
2024/01/02 09:09:07;;;;;;;7.28;1.55;;;10.00;99.90;;;;;;5072287;28;20036;-91
2024/01/02 09:11:34;;;;;;;6.53;1.05;;;10.00;99.90;;;;;;5070461;28;20200;-91
2024/01/02 09:14:00;;;;;;;7.47;1.58;;;10.10;99.90;;;;;;5070279;28;20036;-92
2024/01/02 09:16:32;;;;;;;4.07;1.10;;;10.20;99.90;;;;;;5070635;28;20043;-91
2024/01/02 09:18:58;;;;;;;10.85;1.60;;;10.30;99.90;;;;;;5056054;28;20052;-91
2024/01/02 09:21:24;;;;;;;7.25;1.63;;;10.40;99.90;;;;;;5077299;28;20564;-90
2024/01/02 09:23:50;;;;;;;8.20;1.55;;;10.40;99.90;;;;;;5065132;28;20039;-90
2024/01/02 09:26:21;;;;;;;6.85;1.38;;;10.40;99.90;;;;;;5087993;28;20530;-91
2024/01/02 09:28:48;;;;;;;6.70;1.75;;;10.40;99.90;;;;;;5058000;28;20145;-90
2024/01/02 09:31:14;;;;;;;6.20;1.80;;;10.50;99.90;;;;;;5063428;28;20501;-90
2024/01/02 09:33:43;;;;;;;8.57;1.15;;;10.50;99.90;;;;;;5072037;28;20040;-91
2024/01/02 09:36:08;;;;;;;9.40;2.33;;;10.50;99.90;;;;;;5064673;28;20036;-91
2024/01/02 09:38:37;;;;;;;4.82;1.23;;;10.60;99.90;;;;;;5050325;28;20043;-90
2024/01/02 09:41:09;;;;;;;7.70;1.52;;;10.50;99.90;;;;;;5053433;28;20040;-90
2024/01/02 09:44:01;;;;;;;7.85;1.30;;;10.60;99.90;;;;;;5049065;28;20518;-90
2024/01/02 09:46:39;;;;;;;9.48;1.77;;;10.60;99.90;;;;;;5080467;28;20044;-91
2024/01/02 09:49:29;;;;;;;5.40;1.40;;;10.60;99.90;;;;;;5057341;28;20033;-91
2024/01/02 09:52:19;;;;;;;10.82;1.33;;;10.60;99.90;;;;;;5060524;28;20070;-90
2024/01/02 09:54:56;;;;;;;11.48;2.10;;;10.70;99.90;;;;;;5084316;28;20028;-90
2024/01/02 09:57:39;;;;;;;8.13;1.75;;;10.70;99.90;;;;;;5080802;28;20145;-90
2024/01/02 10:00:11;;;;;;;13.02;1.55;;;10.80;99.90;;;;;;5083579;28;20522;-91
2024/01/02 10:03:03;;;;;;;6.32;1.38;;;10.80;99.90;;;;;;5049449;28;20048;-91
2024/01/02 10:05:52;;;;;;;9.93;2.15;;;10.80;99.90;;;;;;5085290;28;20048;-90
2024/01/02 10:08:35;;;;;;;11.32;2.13;;;10.90;99.90;;;;;;5073338;28;20451;-92
2024/01/02 10:11:26;;;;;;;6.65;1.63;;;10.90;99.90;;;;;;5059657;28;20438;-91
2024/01/02 10:14:02;;;;;;;9.45;1.35;;;10.90;99.90;;;;;;5068751;28;20416;-91
2024/01/02 10:16:41;;;;;;;4.40;0.88;;;11.00;99.90;;;;;;5057564;28;20044;-91
2024/01/02 10:19:22;;;;;;;8.52;1.15;;;11.00;99.90;;;;;;5067554;28;20042;-93
2024/01/02 10:22:03;;;;;;;12.82;2.17;;;11.10;99.90;;;;;;5057752;28;20397;-91
2024/01/02 10:24:38;;;;;;;11.02;1.90;;;11.10;99.90;;;;;;5082509;28;20498;-91
2024/01/02 10:27:12;;;;;;;9.73;2.03;;;11.10;99.90;;;;;;5071667;28;20087;-91
2024/01/02 10:30:21;;;;;;;12.23;1.85;;;11.20;99.90;;;;;;5070783;28;20453;-91
2024/01/02 10:32:54;;;;;;;13.32;2.53;;;11.20;99.90;;;;;;4970634;28;20548;-92
2024/01/02 10:35:25;;;;;;;10.85;2.17;;;11.20;99.90;;;;;;4973767;28;20129;-92
2024/01/02 10:38:16;;;;;;;11.57;2.33;;;11.20;99.90;;;;;;4973376;28;20039;-90
2024/01/02 10:40:51;;;;;;;12.55;3.25;;;11.20;99.90;;;;;;4957214;28;20042;-91
2024/01/02 10:43:29;;;;;;;14.27;2.45;;;11.30;99.90;;;;;;4972265;28;20038;-92
2024/01/02 10:46:03;;;;;;;15.25;2.83;;;11.30;99.90;;;;;;4974349;28;20045;-90
2024/01/02 10:49:15;;;;;;;13.73;1.98;;;11.30;99.90;;;;;;4974337;28;20054;-92
2024/01/02 10:51:49;;;;;;;9.10;1.83;;;11.30;99.90;;;;;;4950151;29;20031;-91
2024/01/02 10:54:24;;;;;;;12.15;2.10;;;11.30;99.90;;;;;;4951739;29;20051;-92
2024/01/02 10:56:58;;;;;;;6.15;1.50;;;11.30;99.90;;;;;;4934660;29;20057;-92
2024/01/02 10:59:50;;;;;;;10.57;2.55;;;11.40;99.90;;;;;;4929889;29;20043;-92
2024/01/02 11:02:34;;;;;;;12.07;2.50;;;11.30;99.90;;;;;;4935505;29;20087;-91
2024/01/02 11:05:23;;;;;;;11.27;2.33;;;11.40;99.90;;;;;;4951943;29;20525;-93
2024/01/02 11:07:54;;;;;;;11.32;3.10;;;11.40;99.90;;;;;;5011707;28;20087;-92
2024/01/02 11:10:24;;;;;;;11.73;2.35;;;11.40;99.90;;;;;;5002330;28;20049;-91
2024/01/02 11:13:01;;;;;;;15.80;2.85;;;11.40;99.90;;;;;;5036136;28;20033;-93
2024/01/02 11:15:28;;;;;;;13.88;2.22;;;11.40;99.90;;;;;;5002052;28;20073;-95
2024/01/02 11:17:57;;;;;;;12.18;2.45;;;11.50;99.90;;;;;;5011711;28;20124;-92
2024/01/02 11:20:30;;;;;;;24.23;2.88;;;11.40;99.90;;;;;;5002830;28;20115;-91
2024/01/02 11:22:59;;;;;;;12.63;2.83;;;11.40;99.90;;;;;;5044681;28;20135;-92
2024/01/02 11:25:29;;;;;;;18.20;2.90;;;11.40;99.90;;;;;;5056483;28;20131;-91
2024/01/02 11:27:56;;;;;;;13.48;2.80;;;11.40;99.90;;;;;;5051463;28;20199;-93
2024/01/02 11:30:24;;;;;;;11.35;2.05;;;11.40;99.90;;;;;;5063086;28;20037;-91
2024/01/02 11:33:08;;;;;;;15.18;3.05;;;11.40;99.90;;;;;;5053568;28;20048;-92
2024/01/02 11:35:47;;;;;;;19.58;4.13;;;11.50;99.90;;;;;;5069619;28;20086;-91
2024/01/02 11:38:19;;;;;;;16.85;3.75;;;11.50;99.90;;;;;;5054593;28;20052;-91
2024/01/02 11:40:56;;;;;;;19.27;3.70;;;11.50;99.90;;;;;;5052428;28;20036;-93
2024/01/02 11:43:46;;;;;;;17.48;4.38;;;11.50;99.90;;;;;;5058375;28;20037;-92
2024/01/02 11:46:16;;;;;;;14.43;3.72;;;11.50;99.90;;;;;;5081035;28;20051;-92
2024/01/02 11:48:58;;;;;;;14.65;3.72;;;11.50;99.90;;;;;;5059168;28;20036;-92
2024/01/02 11:51:27;;;;;;;16.90;3.83;;;11.50;99.90;;;;;;5057473;28;20040;-92
2024/01/02 11:54:20;;;;;;;15.88;4.30;;;11.50;99.90;;;;;;5069928;28;20040;-91
2024/01/02 11:56:46;;;;;;;18.80;3.80;;;11.50;99.90;;;;;;5084083;28;20529;-92
2024/01/02 11:59:24;;;;;;;17.58;4.65;;;11.50;99.90;;;;;;5088045;28;20500;-91
2024/01/02 12:02:24;;;;;;;15.88;4.25;;;11.50;99.90;;;;;;5089092;28;20050;-91
2024/01/02 12:05:30;;;;;;;12.13;3.28;;;11.50;99.90;;;;;;5073909;28;20035;-91
2024/01/02 12:07:56;;;;;;;15.55;3.08;;;11.50;99.90;;;;;;5052870;28;20052;-91
2024/01/02 12:10:34;;;;;;;21.00;3.30;;;11.50;99.90;;;;;;5087344;28;20047;-91
2024/01/02 12:13:37;;;;;;;22.35;3.05;;;11.50;99.90;;;;;;5070424;28;20073;-91
2024/01/02 12:16:07;;;;;;;;;;;11.50;99.90;;;;;;5066008;28;20043;-92
2024/01/02 12:18:36;;;;;;;12.15;2.50;;;11.50;99.90;;;;;;5066416;28;19920;-91
2024/01/02 12:21:10;;;;;;;18.85;3.20;;;11.50;99.90;;;;;;5079822;28;20666;-91
2024/01/02 12:23:38;;;;;;;21.05;4.30;;;11.50;99.90;;;;;;5077702;28;20079;-91
2024/01/02 12:26:06;;;;;;;17.23;3.40;;;11.50;99.90;;;;;;5079863;28;20492;-92
2024/01/02 12:28:33;;;;;;;20.40;5.03;;;11.50;99.90;;;;;;5070398;28;20045;-91
2024/01/02 12:31:13;;;;;;;23.70;4.03;;;11.50;99.90;;;;;;5069405;28;20068;-91
2024/01/02 12:33:46;;;;;;;21.08;3.65;;;11.50;99.90;;;;;;5069091;28;20478;-92
2024/01/02 12:36:18;;;;;;;16.65;3.75;;;11.50;99.90;;;;;;5078002;28;20414;-91
2024/01/02 12:38:50;;;;;;;29.23;8.10;;;11.50;99.90;;;;;;5067681;28;20510;-91
2024/01/02 12:41:33;;;;;;;21.40;4.43;;;11.60;99.90;;;;;;5071849;28;20166;-91
2024/01/02 12:44:01;;;;;;;26.85;4.07;;;11.60;99.90;;;;;;5082825;28;20180;-91
2024/01/02 12:46:58;;;;;;;20.00;3.97;;;11.50;99.90;;;;;;5074067;28;20524;-91
2024/01/02 12:49:27;;;;;;;16.42;3.33;;;11.50;99.90;;;;;;5066920;28;20059;-90
2024/01/02 12:52:02;;;;;;;23.20;3.80;;;11.50;99.90;;;;;;5089267;28;20476;-91
2024/01/02 12:54:29;;;;;;;21.58;3.30;;;11.50;99.90;;;;;;5057674;28;20072;-91
2024/01/02 12:57:02;;;;;;;41.25;5.60;;;11.50;99.90;;;;;;5082601;28;20030;-91
2024/01/02 12:59:30;;;;;;;22.40;5.32;;;11.50;99.90;;;;;;5059641;28;20047;-91
2024/01/02 13:01:57;;;;;;;19.33;3.55;;;11.50;99.90;;;;;;5072787;28;20044;-91